Time;durP1;ratioP1;P1;durP2;ratioP2;P2;SDS_P1;SDS_P2;PMS_P1;PMS_P2;Temp;Humidity;BMP_temperature;BMP_pressure;BME280_temperature;BME280_humidity;BME280_pressure;Samples;Min_cycle;Max_cycle;Signal;HPM_P1;HPM_P2
2021/07/13 00:01:31;;;;;;;3.33;1.98;;;19.30;88.10;;;;;;6187345;23;20035;-77
2021/07/13 00:04:01;;;;;;;4.03;2.22;;;19.20;88.30;;;;;;6221450;23;20024;-77
2021/07/13 00:06:29;;;;;;;7.05;2.38;;;19.30;88.10;;;;;;6219751;23;20025;-77
2021/07/13 00:08:56;;;;;;;6.03;3.00;;;19.30;88.30;;;;;;6219932;23;20095;-77
2021/07/13 00:11:25;;;;;;;8.60;2.47;;;19.30;88.60;;;;;;6218619;23;20024;-77
2021/07/13 00:13:53;;;;;;;4.50;2.30;;;19.30;88.70;;;;;;6218444;23;20309;-77
2021/07/13 00:16:20;;;;;;;5.30;2.28;;;19.30;88.90;;;;;;6216590;23;20544;-77
2021/07/13 00:18:49;;;;;;;5.97;2.10;;;19.20;88.70;;;;;;6194665;23;20075;-77
2021/07/13 00:21:16;;;;;;;6.32;2.20;;;19.20;88.80;;;;;;6219801;23;20035;-77
2021/07/13 00:23:44;;;;;;;10.30;2.42;;;19.10;88.90;;;;;;6191332;23;20044;-77
2021/07/13 00:26:18;;;;;;;5.82;2.40;;;19.20;88.80;;;;;;6200501;23;20096;-78
2021/07/13 00:28:46;;;;;;;2.70;1.75;;;19.20;88.90;;;;;;6220189;23;20040;-78
2021/07/13 00:31:15;;;;;;;5.03;2.75;;;19.30;88.60;;;;;;6219822;23;20051;-78
2021/07/13 00:33:42;;;;;;;4.45;2.55;;;19.40;88.20;;;;;;6219376;23;20025;-77
2021/07/13 00:36:09;;;;;;;6.30;2.30;;;19.40;87.90;;;;;;6217693;23;20048;-77
2021/07/13 00:38:38;;;;;;;3.83;1.67;;;19.30;88.20;;;;;;6215724;23;20020;-78
2021/07/13 00:41:07;;;;;;;4.32;2.17;;;19.30;88.20;;;;;;6216852;23;20025;-77
2021/07/13 00:43:34;;;;;;;3.85;2.28;;;19.30;88.30;;;;;;6217889;23;20260;-77
2021/07/13 00:46:03;;;;;;;5.57;2.50;;;19.20;88.50;;;;;;6217727;23;20040;-77
2021/07/13 00:48:33;;;;;;;8.40;2.40;;;19.20;88.60;;;;;;6211333;23;20027;-78
2021/07/13 00:51:03;;;;;;;5.50;2.30;;;19.20;88.70;;;;;;6217947;23;20024;-78
2021/07/13 00:53:31;;;;;;;5.57;1.65;;;19.20;88.70;;;;;;6216768;23;20024;-77
2021/07/13 00:55:58;;;;;;;2.92;1.65;;;19.20;88.70;;;;;;6216700;23;20400;-78
2021/07/13 00:58:26;;;;;;;3.15;1.67;;;19.10;88.70;;;;;;6213498;23;20104;-77
2021/07/13 01:00:54;;;;;;;4.35;1.92;;;19.10;88.70;;;;;;6210921;23;20039;-78
2021/07/13 01:03:21;;;;;;;3.33;1.83;;;19.00;88.80;;;;;;6213460;23;20040;-77
2021/07/13 01:05:52;;;;;;;4.03;1.95;;;19.00;89.70;;;;;;6214038;23;20031;-77
2021/07/13 01:08:36;;;;;;;3.65;1.88;;;19.00;89.90;;;;;;6238097;23;20044;-77
2021/07/13 01:11:12;;;;;;;3.95;1.70;;;19.00;90.00;;;;;;6214964;23;20028;-77
2021/07/13 01:13:43;;;;;;;5.55;1.88;;;19.00;89.80;;;;;;6237686;23;20048;-77
2021/07/13 01:16:15;;;;;;;4.07;1.70;;;19.00;90.00;;;;;;6238338;23;20035;-78
2021/07/13 01:18:50;;;;;;;3.25;1.83;;;19.00;89.80;;;;;;6213706;23;20028;-77
2021/07/13 01:21:50;;;;;;;8.48;1.90;;;19.10;89.40;;;;;;6214647;23;20347;-77
2021/07/13 01:25:15;;;;;;;3.20;1.92;;;19.10;89.30;;;;;;6197286;23;20228;-77
2021/07/13 01:28:02;;;;;;;2.80;1.73;;;19.00;89.70;;;;;;6123570;23;20030;-77
2021/07/13 01:30:32;;;;;;;4.22;1.80;;;19.00;89.60;;;;;;6122594;23;20045;-77
2021/07/13 01:33:07;;;;;;;6.68;2.20;;;18.90;89.70;;;;;;6179126;23;20043;-77
2021/07/13 01:35:42;;;;;;;4.13;2.22;;;18.70;90.10;;;;;;6214688;23;20025;-78
2021/07/13 01:38:12;;;;;;;4.47;2.58;;;18.70;90.30;;;;;;6215587;23;20020;-78
2021/07/13 01:40:42;;;;;;;6.32;2.35;;;18.60;90.40;;;;;;6216057;23;20030;-77
2021/07/13 01:43:12;;;;;;;7.57;2.38;;;18.70;90.50;;;;;;6215165;23;20024;-78
2021/07/13 01:45:41;;;;;;;7.80;2.50;;;18.60;90.80;;;;;;6238471;23;20087;-77
2021/07/13 01:48:10;;;;;;;10.57;2.58;;;18.60;91.10;;;;;;6218455;23;20020;-77
2021/07/13 01:50:40;;;;;;;3.40;2.05;;;18.60;91.10;;;;;;6216657;23;20024;-78
2021/07/13 01:53:08;;;;;;;5.47;2.33;;;18.60;91.00;;;;;;6214801;23;20044;-77
2021/07/13 01:55:38;;;;;;;5.13;2.17;;;18.70;91.00;;;;;;6217250;23;20080;-77
2021/07/13 01:58:05;;;;;;;3.35;2.10;;;18.70;91.00;;;;;;6241462;23;20098;-77
2021/07/13 02:00:34;;;;;;;7.60;2.20;;;18.70;91.20;;;;;;6237417;23;20049;-77
2021/07/13 02:03:03;;;;;;;4.25;2.00;;;18.70;91.10;;;;;;6217565;23;20031;-77
2021/07/13 02:05:31;;;;;;;6.05;2.47;;;18.70;91.10;;;;;;6217071;23;20095;-77
2021/07/13 02:08:03;;;;;;;4.85;2.22;;;18.70;91.00;;;;;;6215399;23;20040;-77
2021/07/13 02:10:33;;;;;;;8.43;2.42;;;18.60;90.80;;;;;;6214803;23;20063;-77
2021/07/13 02:13:00;;;;;;;3.80;2.60;;;18.60;90.90;;;;;;6216963;23;20063;-77
2021/07/13 02:15:29;;;;;;;3.30;2.08;;;18.60;90.90;;;;;;6240238;23;20029;-77
2021/07/13 02:17:57;;;;;;;3.97;2.22;;;18.60;90.80;;;;;;6219414;23;20020;-77
2021/07/13 02:20:25;;;;;;;3.67;2.10;;;18.50;90.90;;;;;;6217027;23;20029;-77
2021/07/13 02:22:52;;;;;;;4.57;1.83;;;18.50;90.80;;;;;;6219823;23;20062;-77
2021/07/13 02:25:19;;;;;;;5.40;1.98;;;18.50;90.80;;;;;;6219187;23;20047;-77
2021/07/13 02:28:00;;;;;;;5.68;2.40;;;18.50;90.60;;;;;;6219999;23;20075;-77
2021/07/13 02:30:36;;;;;;;3.50;2.20;;;18.50;90.70;;;;;;6217795;23;20023;-77
2021/07/13 02:33:12;;;;;;;9.40;2.40;;;18.50;90.60;;;;;;6217701;23;20717;-77
2021/07/13 02:35:42;;;;;;;3.85;2.08;;;18.50;90.70;;;;;;6190872;23;20044;-77
2021/07/13 02:38:10;;;;;;;5.20;2.28;;;18.50;90.60;;;;;;6218158;23;20043;-77
2021/07/13 02:40:39;;;;;;;3.67;2.20;;;18.50;90.40;;;;;;6212181;23;20063;-77
2021/07/13 02:43:07;;;;;;;3.85;2.15;;;18.50;90.50;;;;;;6215908;23;20270;-77
2021/07/13 02:45:36;;;;;;;4.28;1.77;;;18.60;90.40;;;;;;6190041;23;20360;-77
2021/07/13 02:48:06;;;;;;;5.07;2.30;;;18.60;90.50;;;;;;6190424;23;20063;-78
2021/07/13 02:50:33;;;;;;;3.90;1.98;;;18.60;90.40;;;;;;6189626;23;20044;-77
2021/07/13 02:53:02;;;;;;;3.72;1.90;;;18.60;90.50;;;;;;6216216;23;20347;-78
2021/07/13 02:55:32;;;;;;;3.58;2.10;;;18.60;90.50;;;;;;6213266;23;20040;-78
2021/07/13 02:58:01;;;;;;;3.78;1.98;;;18.60;90.50;;;;;;6213908;23;20048;-78
2021/07/13 03:00:33;;;;;;;5.78;2.25;;;18.60;90.50;;;;;;6182889;23;20021;-78
2021/07/13 03:03:01;;;;;;;4.30;2.53;;;18.60;90.40;;;;;;6216451;23;20025;-78
2021/07/13 03:05:30;;;;;;;4.57;2.53;;;18.60;90.30;;;;;;6215369;23;20051;-78
2021/07/13 03:08:01;;;;;;;3.58;2.00;;;18.60;90.30;;;;;;6186815;23;20024;-77
2021/07/13 03:10:30;;;;;;;;;;;18.70;90.40;;;;;;6188280;23;20051;-78
2021/07/13 03:12:57;;;;;;;4.28;2.13;;;18.70;90.10;;;;;;6212573;23;20041;-77
2021/07/13 03:15:26;;;;;;;4.05;2.22;;;18.60;90.60;;;;;;6189123;23;20435;-78
2021/07/13 03:17:54;;;;;;;3.63;1.77;;;18.60;90.60;;;;;;6188394;23;20347;-78
2021/07/13 03:20:22;;;;;;;3.30;1.80;;;18.60;90.30;;;;;;6188984;23;20224;-78
2021/07/13 03:22:52;;;;;;;5.32;2.47;;;18.60;90.20;;;;;;6188203;23;20088;-79
2021/07/13 03:25:25;;;;;;;11.45;2.17;;;18.60;90.30;;;;;;6215259;23;20273;-78
2021/07/13 03:27:53;;;;;;;4.93;2.17;;;18.60;90.20;;;;;;6188002;23;20031;-78
2021/07/13 03:30:24;;;;;;;6.10;2.42;;;18.60;90.00;;;;;;6213221;23;20030;-78
2021/07/13 03:32:53;;;;;;;4.30;2.15;;;18.60;89.90;;;;;;6216056;23;20031;-77
2021/07/13 03:35:22;;;;;;;8.05;2.30;;;18.60;90.00;;;;;;6189949;23;20168;-77
2021/07/13 03:37:51;;;;;;;7.72;2.30;;;18.60;90.00;;;;;;6185484;23;20040;-77
2021/07/13 03:40:20;;;;;;;3.53;1.70;;;18.60;90.20;;;;;;6217213;23;20032;-78
2021/07/13 03:42:49;;;;;;;4.63;2.08;;;18.70;90.00;;;;;;6190316;23;20028;-78
2021/07/13 03:45:17;;;;;;;6.32;1.92;;;18.80;90.40;;;;;;6192902;23;20140;-79
2021/07/13 03:47:47;;;;;;;3.13;2.13;;;18.70;90.70;;;;;;6217395;23;20013;-78
2021/07/13 03:50:16;;;;;;;17.83;2.97;;;18.70;90.90;;;;;;6219315;23;20255;-79
2021/07/13 03:52:44;;;;;;;5.07;2.20;;;18.60;90.90;;;;;;6194650;23;20029;-79
2021/07/13 03:55:14;;;;;;;6.13;2.15;;;18.60;91.10;;;;;;6191935;23;20012;-78
2021/07/13 03:57:42;;;;;;;6.35;2.13;;;18.50;91.50;;;;;;6221212;23;20059;-78
2021/07/13 04:00:12;;;;;;;5.50;2.53;;;18.40;91.60;;;;;;6192242;23;20029;-77
2021/07/13 04:02:40;;;;;;;6.22;2.30;;;18.40;91.90;;;;;;6220590;23;20299;-78
2021/07/13 04:05:09;;;;;;;4.72;1.95;;;18.40;91.80;;;;;;6216809;23;20224;-78
2021/07/13 04:07:36;;;;;;;4.75;2.38;;;18.40;91.60;;;;;;6191893;23;20346;-77
2021/07/13 04:10:06;;;;;;;4.72;2.38;;;18.40;92.10;;;;;;6192970;23;20313;-78
2021/07/13 04:12:34;;;;;;;5.70;2.40;;;18.40;91.80;;;;;;6216793;23;20040;-77
2021/07/13 04:15:03;;;;;;;5.85;2.60;;;18.40;92.10;;;;;;6218416;23;20039;-78
2021/07/13 04:17:30;;;;;;;4.05;2.28;;;18.40;91.90;;;;;;6218755;23;20067;-78
2021/07/13 04:19:57;;;;;;;4.35;2.30;;;18.50;92.30;;;;;;6217372;23;20507;-77
2021/07/13 04:22:24;;;;;;;3.97;2.40;;;18.50;92.40;;;;;;6216858;23;20031;-78
2021/07/13 04:24:52;;;;;;;4.50;2.58;;;18.50;92.00;;;;;;6190481;23;20024;-77
2021/07/13 04:27:19;;;;;;;6.97;2.60;;;18.50;92.60;;;;;;6210354;23;20048;-77
2021/07/13 04:29:47;;;;;;;6.60;2.30;;;18.60;91.80;;;;;;6242673;23;20024;-78
2021/07/13 04:32:15;;;;;;;4.65;2.60;;;18.60;91.70;;;;;;6241246;23;20264;-77
2021/07/13 04:34:42;;;;;;;6.22;2.58;;;18.60;91.50;;;;;;6217629;23;20040;-77
2021/07/13 04:37:09;;;;;;;5.28;2.40;;;18.60;91.90;;;;;;6216608;23;20032;-78
2021/07/13 04:39:36;;;;;;;4.63;2.42;;;18.60;91.40;;;;;;6237844;23;20024;-78
2021/07/13 04:42:04;;;;;;;9.88;2.95;;;18.60;91.90;;;;;;6213888;23;20120;-78
2021/07/13 04:44:31;;;;;;;5.15;2.67;;;18.60;91.80;;;;;;6219176;23;20023;-78
2021/07/13 04:47:00;;;;;;;5.43;2.53;;;18.60;92.00;;;;;;6241178;23;20028;-79
2021/07/13 04:49:34;;;;;;;5.38;2.65;;;18.60;92.50;;;;;;6216625;23;20021;-78
2021/07/13 04:52:01;;;;;;;6.10;3.22;;;18.60;91.60;;;;;;6217431;23;20024;-79
2021/07/13 04:54:31;;;;;;;7.43;2.88;;;18.50;92.10;;;;;;6240995;23;20028;-79
2021/07/13 04:56:59;;;;;;;6.05;2.63;;;18.50;92.70;;;;;;6216958;23;20160;-79
2021/07/13 04:59:26;;;;;;;6.85;2.60;;;18.60;93.00;;;;;;6215513;23;20029;-78
2021/07/13 05:01:53;;;;;;;5.05;2.78;;;18.60;92.70;;;;;;6235730;23;20048;-78
2021/07/13 05:04:22;;;;;;;6.25;2.90;;;18.50;92.60;;;;;;6240520;23;20035;-78
2021/07/13 05:06:50;;;;;;;4.95;2.28;;;18.50;92.90;;;;;;6238863;23;20028;-78
2021/07/13 05:09:18;;;;;;;5.07;2.88;;;18.60;93.20;;;;;;6216394;23;20209;-78
2021/07/13 05:11:45;;;;;;;5.60;2.67;;;18.60;93.20;;;;;;6216680;23;20071;-78
2021/07/13 05:14:12;;;;;;;5.38;2.80;;;18.60;93.20;;;;;;6239898;23;20239;-78
2021/07/13 05:16:43;;;;;;;7.90;3.17;;;18.60;93.30;;;;;;6238325;23;20411;-78
2021/07/13 05:19:13;;;;;;;8.52;2.83;;;18.60;93.30;;;;;;6214726;23;20020;-78
2021/07/13 05:21:44;;;;;;;11.50;3.65;;;18.70;93.30;;;;;;6215277;23;20025;-78
2021/07/13 05:24:11;;;;;;;14.23;3.72;;;18.80;92.90;;;;;;6214524;23;20102;-78
2021/07/13 05:26:39;;;;;;;7.10;3.25;;;18.90;92.60;;;;;;6219002;23;20324;-78
2021/07/13 05:29:08;;;;;;;6.65;2.90;;;18.90;92.20;;;;;;6218987;23;20036;-78
2021/07/13 05:31:35;;;;;;;8.93;3.55;;;18.90;92.00;;;;;;6191222;23;20407;-78
2021/07/13 05:34:02;;;;;;;7.18;2.78;;;19.00;92.60;;;;;;6216777;23;20040;-78
2021/07/13 05:36:30;;;;;;;6.93;3.47;;;19.00;92.60;;;;;;6215420;23;20029;-78
2021/07/13 05:39:00;;;;;;;6.32;2.85;;;19.00;92.60;;;;;;6190942;23;20220;-79
2021/07/13 05:41:30;;;;;;;6.22;3.20;;;19.10;92.40;;;;;;6215433;23;20028;-79
2021/07/13 05:43:57;;;;;;;5.15;2.85;;;19.10;92.20;;;;;;6191237;23;20028;-79
2021/07/13 05:46:25;;;;;;;5.93;2.80;;;19.00;92.10;;;;;;6188983;23;20036;-79
2021/07/13 05:48:52;;;;;;;5.80;2.88;;;19.00;92.10;;;;;;6191253;23;20024;-78
2021/07/13 05:51:20;;;;;;;7.00;2.85;;;19.00;92.20;;;;;;6214505;23;20017;-78
2021/07/13 05:53:47;;;;;;;7.03;2.83;;;19.10;92.20;;;;;;6215097;23;20322;-78
2021/07/13 05:56:15;;;;;;;5.60;2.90;;;19.10;91.90;;;;;;6187825;23;20051;-79
2021/07/13 05:58:43;;;;;;;5.75;3.13;;;19.00;91.80;;;;;;6215680;23;20228;-78
2021/07/13 06:01:10;;;;;;;5.22;2.92;;;18.90;91.80;;;;;;6210850;23;20044;-78
2021/07/13 06:03:37;;;;;;;5.55;3.03;;;18.80;92.20;;;;;;6189207;23;20044;-78
2021/07/13 06:06:04;;;;;;;4.40;2.70;;;18.80;92.40;;;;;;6190528;23;20039;-79
2021/07/13 06:08:32;;;;;;;7.55;3.13;;;18.80;92.20;;;;;;6218514;23;20249;-78
2021/07/13 06:10:59;;;;;;;5.50;2.90;;;18.90;92.40;;;;;;6216112;23;20024;-79
2021/07/13 06:13:27;;;;;;;6.03;3.45;;;18.80;92.30;;;;;;6217891;23;20028;-78
2021/07/13 06:15:55;;;;;;;6.15;2.75;;;18.90;91.80;;;;;;6219266;23;20017;-79
2021/07/13 06:18:22;;;;;;;7.55;3.50;;;18.90;91.90;;;;;;6217314;23;20020;-79
2021/07/13 06:20:50;;;;;;;5.05;3.15;;;18.90;91.90;;;;;;6215575;23;20158;-79
2021/07/13 06:23:18;;;;;;;4.72;3.20;;;19.10;92.10;;;;;;6191978;23;20026;-79
2021/07/13 06:25:45;;;;;;;7.32;3.22;;;19.20;91.90;;;;;;6214516;23;20263;-78
2021/07/13 06:28:13;;;;;;;6.57;3.28;;;19.20;91.80;;;;;;6216129;23;20044;-79
2021/07/13 06:30:41;;;;;;;5.20;2.67;;;19.20;91.70;;;;;;6216554;23;20028;-78
2021/07/13 06:33:08;;;;;;;7.32;3.80;;;19.20;91.70;;;;;;6192411;23;20268;-79
2021/07/13 06:35:36;;;;;;;7.03;3.25;;;19.30;91.70;;;;;;6192945;23;20036;-78
2021/07/13 06:38:05;;;;;;;5.55;3.38;;;19.30;91.60;;;;;;6188365;23;20109;-79
2021/07/13 06:40:33;;;;;;;6.28;3.22;;;19.30;91.70;;;;;;6188206;23;20115;-78
2021/07/13 06:43:00;;;;;;;6.13;3.67;;;19.30;91.80;;;;;;6188553;23;20033;-79
2021/07/13 06:45:31;;;;;;;5.18;2.95;;;19.40;91.30;;;;;;6221744;23;20105;-79
2021/07/13 06:47:59;;;;;;;7.70;3.35;;;19.40;91.30;;;;;;6192904;23;20016;-78
2021/07/13 06:50:27;;;;;;;5.68;3.53;;;19.50;91.20;;;;;;6215231;23;20288;-79
2021/07/13 06:52:55;;;;;;;5.45;3.33;;;19.50;91.20;;;;;;6188355;23;20033;-77
2021/07/13 06:55:22;;;;;;;7.78;3.45;;;19.60;91.20;;;;;;6215013;23;20305;-74
2021/07/13 06:57:50;;;;;;;5.97;3.45;;;19.60;91.00;;;;;;6215095;23;20036;-78
2021/07/13 07:00:17;;;;;;;9.55;3.88;;;19.60;90.60;;;;;;6210340;23;20013;-80
2021/07/13 07:02:44;;;;;;;8.23;3.10;;;19.60;90.60;;;;;;6217553;23;20529;-77
2021/07/13 07:05:15;;;;;;;5.72;3.45;;;19.60;90.60;;;;;;6212326;23;20047;-78
2021/07/13 07:07:47;;;;;;;7.63;3.65;;;19.60;90.70;;;;;;6216105;23;20031;-78
2021/07/13 07:10:15;;;;;;;7.45;3.60;;;19.50;90.90;;;;;;6189586;23;20025;-78
2021/07/13 07:12:43;;;;;;;8.50;3.97;;;19.50;90.70;;;;;;6190794;23;20047;-78
2021/07/13 07:15:11;;;;;;;6.68;3.58;;;19.50;90.80;;;;;;6191376;23;20033;-78
2021/07/13 07:17:43;;;;;;;5.55;3.05;;;19.60;90.60;;;;;;6219956;23;20024;-77
2021/07/13 07:20:13;;;;;;;4.72;3.05;;;19.60;90.50;;;;;;6217069;23;20036;-77
2021/07/13 07:22:40;;;;;;;;;;;19.60;90.10;;;;;;6224453;23;20016;-79
2021/07/13 07:25:09;;;;;;;7.10;3.22;;;19.70;90.10;;;;;;6198562;23;19926;-80
2021/07/13 07:27:36;;;;;;;6.05;3.40;;;20.00;89.90;;;;;;6222999;23;20029;-78
2021/07/13 07:30:06;;;;;;;5.70;3.30;;;20.00;89.60;;;;;;6198123;23;20024;-77
2021/07/13 07:32:33;;;;;;;6.20;3.55;;;20.10;89.40;;;;;;6222692;23;20035;-78
2021/07/13 07:35:00;;;;;;;5.97;3.38;;;20.30;89.10;;;;;;6222397;23;20320;-77
2021/07/13 07:37:35;;;;;;;6.18;3.33;;;20.60;88.20;;;;;;6196816;23;20028;-78
2021/07/13 07:40:04;;;;;;;6.78;3.17;;;20.70;87.10;;;;;;6222895;23;20021;-77
2021/07/13 07:42:36;;;;;;;6.72;3.40;;;20.90;85.90;;;;;;6196802;23;20312;-77
2021/07/13 07:45:04;;;;;;;5.35;3.15;;;21.10;85.60;;;;;;6220821;23;20024;-77
2021/07/13 07:47:32;;;;;;;7.10;3.13;;;21.20;85.20;;;;;;6221402;23;20017;-77
2021/07/13 07:49:59;;;;;;;10.10;3.55;;;21.30;85.10;;;;;;6221384;23;20021;-78
2021/07/13 07:52:26;;;;;;;7.03;3.03;;;21.50;84.40;;;;;;6194962;23;20020;-77
2021/07/13 07:54:55;;;;;;;5.75;2.88;;;21.70;84.00;;;;;;6194959;23;20028;-77
2021/07/13 07:57:22;;;;;;;7.45;4.18;;;21.90;82.70;;;;;;6222981;23;20024;-77
2021/07/13 07:59:49;;;;;;;6.00;3.17;;;22.20;82.40;;;;;;6221994;23;20047;-78
2021/07/13 08:02:16;;;;;;;5.82;3.45;;;22.40;82.00;;;;;;6216330;23;20063;-78
2021/07/13 08:04:44;;;;;;;4.85;2.80;;;22.40;82.40;;;;;;6219258;23;20044;-78
2021/07/13 08:07:12;;;;;;;4.82;2.95;;;22.50;80.60;;;;;;6220273;23;20024;-78
2021/07/13 08:09:39;;;;;;;7.03;3.03;;;22.60;80.60;;;;;;6217647;23;20021;-78
2021/07/13 08:12:09;;;;;;;4.65;2.97;;;22.60;80.90;;;;;;6192927;23;20028;-79
2021/07/13 08:14:36;;;;;;;4.38;2.90;;;22.70;80.50;;;;;;6191045;23;20051;-78
2021/07/13 08:17:04;;;;;;;5.13;3.47;;;22.90;79.90;;;;;;6192301;23;20036;-79
2021/07/13 08:19:38;;;;;;;10.45;3.55;;;23.10;79.50;;;;;;6222144;23;20021;-78
2021/07/13 08:22:06;;;;;;;4.97;3.10;;;23.20;78.60;;;;;;6218193;23;20068;-78
2021/07/13 08:24:34;;;;;;;5.40;2.95;;;23.20;78.20;;;;;;6187762;23;20036;-78
2021/07/13 08:27:02;;;;;;;10.38;3.47;;;23.20;78.20;;;;;;6207302;23;20033;-78
2021/07/13 08:29:31;;;;;;;6.72;2.85;;;23.40;78.20;;;;;;6214287;23;20122;-78
2021/07/13 08:31:59;;;;;;;6.13;3.22;;;23.40;77.50;;;;;;6215013;23;20647;-78
2021/07/13 08:34:26;;;;;;;7.53;3.05;;;23.40;77.70;;;;;;6239888;23;20092;-78
2021/07/13 08:36:54;;;;;;;5.45;3.00;;;23.40;78.40;;;;;;6214687;23;20468;-78
2021/07/13 08:39:21;;;;;;;7.70;3.35;;;23.60;78.00;;;;;;6239530;23;20225;-79
2021/07/13 08:41:49;;;;;;;5.90;3.50;;;23.70;75.70;;;;;;6217314;23;20024;-79
2021/07/13 08:44:17;;;;;;;6.82;3.15;;;23.80;76.40;;;;;;6215674;23;20336;-78
2021/07/13 08:46:48;;;;;;;6.78;3.33;;;23.80;76.70;;;;;;6241810;23;20028;-78
2021/07/13 08:49:17;;;;;;;7.32;3.08;;;23.90;76.30;;;;;;6244456;23;20116;-79
2021/07/13 08:51:44;;;;;;;5.30;3.08;;;24.10;75.80;;;;;;6221268;23;20024;-79
2021/07/13 08:54:12;;;;;;;7.72;3.00;;;24.30;75.10;;;;;;6243960;23;20515;-78
2021/07/13 08:56:39;;;;;;;5.97;3.30;;;24.30;74.70;;;;;;6241024;23;20043;-78
2021/07/13 08:59:07;;;;;;;7.82;2.95;;;24.30;75.10;;;;;;6220827;23;20338;-78
2021/07/13 09:01:34;;;;;;;5.05;2.65;;;24.30;75.30;;;;;;6214987;23;20024;-79
2021/07/13 09:04:05;;;;;;;9.00;3.30;;;24.50;74.40;;;;;;6223238;23;20024;-78
2021/07/13 09:06:51;;;;;;;6.22;2.83;;;24.40;72.90;;;;;;6221556;23;20039;-79
2021/07/13 09:09:29;;;;;;;6.80;2.70;;;24.10;73.70;;;;;;6222342;23;20084;-79
2021/07/13 09:12:15;;;;;;;6.97;3.20;;;24.10;74.00;;;;;;6221514;23;20035;-78
2021/07/13 09:14:55;;;;;;;5.57;3.08;;;23.50;75.40;;;;;;6221127;23;20239;-78
2021/07/13 09:17:40;;;;;;;;;;;23.50;75.30;;;;;;6243283;23;20079;-78
2021/07/13 09:20:12;;;;;;;6.88;3.95;;;23.40;75.90;;;;;;6219304;23;19920;-78
2021/07/13 09:22:41;;;;;;;4.82;2.55;;;23.20;77.30;;;;;;6220566;23;20370;-78
2021/07/13 09:25:33;;;;;;;5.50;2.93;;;23.00;76.80;;;;;;6220879;23;20060;-78
2021/07/13 09:28:25;;;;;;;5.55;2.78;;;22.90;76.60;;;;;;6200572;23;20635;-78
2021/07/13 09:30:54;;;;;;;6.30;3.28;;;22.80;79.00;;;;;;6222307;23;20035;-78
2021/07/13 09:33:23;;;;;;;8.80;3.30;;;22.70;79.60;;;;;;6247326;23;20035;-78
2021/07/13 09:36:07;;;;;;;4.90;2.85;;;22.60;79.60;;;;;;6222511;23;20024;-77
2021/07/13 09:38:36;;;;;;;6.72;3.22;;;22.60;79.60;;;;;;6221677;23;20020;-77
2021/07/13 09:41:08;;;;;;;;;;;22.70;79.20;;;;;;6246237;23;20032;-78
2021/07/13 09:43:49;;;;;;;4.63;2.70;;;22.80;78.80;;;;;;6220935;23;19920;-77
2021/07/13 09:46:31;;;;;;;4.88;3.00;;;22.80;78.10;;;;;;6218711;23;20040;-78
2021/07/13 09:49:16;;;;;;;5.85;3.40;;;22.70;78.60;;;;;;6240536;23;20355;-77
2021/07/13 09:51:47;;;;;;;4.53;2.67;;;22.60;79.80;;;;;;6245919;23;20312;-77
2021/07/13 09:54:32;;;;;;;5.25;3.05;;;22.60;79.10;;;;;;6222482;23;20320;-78
2021/07/13 09:57:01;;;;;;;6.85;3.10;;;22.40;80.00;;;;;;6216290;23;20028;-77
2021/07/13 09:59:32;;;;;;;5.60;3.28;;;22.30;80.40;;;;;;6218752;23;20071;-77
2021/07/13 10:02:03;;;;;;;5.82;3.55;;;22.10;81.10;;;;;;6235677;23;20030;-77
2021/07/13 10:04:31;;;;;;;5.03;2.88;;;22.10;81.90;;;;;;6220817;23;20035;-77
2021/07/13 10:07:05;;;;;;;5.07;3.00;;;22.10;80.90;;;;;;6217573;23;20024;-77
2021/07/13 10:09:37;;;;;;;6.82;3.55;;;21.90;82.30;;;;;;6215913;23;20024;-77
2021/07/13 10:12:09;;;;;;;5.78;3.17;;;21.90;82.70;;;;;;6215408;23;20024;-77
2021/07/13 10:14:38;;;;;;;6.45;3.10;;;21.70;83.80;;;;;;6217877;23;20223;-77
2021/07/13 10:17:08;;;;;;;6.63;3.35;;;21.60;84.70;;;;;;6243860;23;20021;-77
2021/07/13 10:19:36;;;;;;;5.97;3.33;;;21.50;84.90;;;;;;6217437;23;20382;-76
2021/07/13 10:22:06;;;;;;;10.57;5.35;;;21.50;84.80;;;;;;6218601;23;20017;-77
2021/07/13 10:24:34;;;;;;;;;;;21.40;85.50;;;;;;6218912;23;20032;-77
2021/07/13 10:27:02;;;;;;;5.75;3.20;;;21.30;85.90;;;;;;6220013;23;19974;-77
2021/07/13 10:29:45;;;;;;;5.15;2.78;;;21.30;85.90;;;;;;6220307;23;20312;-77
2021/07/13 10:32:37;;;;;;;4.95;3.15;;;21.20;86.00;;;;;;6194168;23;20216;-77
2021/07/13 10:35:13;;;;;;;6.53;3.08;;;21.10;87.10;;;;;;6216516;23;20028;-77
2021/07/13 10:37:45;;;;;;;5.10;3.20;;;21.10;87.50;;;;;;6217187;23;20031;-77
2021/07/13 10:40:14;;;;;;;5.18;3.00;;;21.10;88.10;;;;;;6191342;23;20024;-77
2021/07/13 10:42:49;;;;;;;5.60;3.20;;;21.10;88.30;;;;;;6216842;23;20739;-77
2021/07/13 10:45:19;;;;;;;6.07;2.97;;;21.10;88.40;;;;;;6192796;23;20125;-77
2021/07/13 10:47:56;;;;;;;;;;;21.10;88.40;;;;;;6222245;23;20324;-77
2021/07/13 10:50:37;;;;;;;4.25;2.70;;;21.10;88.50;;;;;;6221520;23;19912;-77
2021/07/13 10:53:07;;;;;;;5.40;2.90;;;21.00;88.50;;;;;;6217180;23;20079;-77
2021/07/13 10:55:49;;;;;;;7.97;3.88;;;21.10;88.60;;;;;;6221232;23;20016;-77
2021/07/13 10:58:41;;;;;;;6.43;3.28;;;21.10;89.30;;;;;;6223856;23;20024;-77
2021/07/13 11:01:20;;;;;;;5.43;3.22;;;21.10;88.80;;;;;;6191113;23;20175;-77
2021/07/13 11:03:54;;;;;;;;;;;21.30;88.70;;;;;;6222603;23;20024;-76
2021/07/13 11:06:45;;;;;;;6.45;3.60;;;21.60;88.20;;;;;;6219085;23;19939;-77
2021/07/13 11:09:20;;;;;;;5.10;3.10;;;22.10;87.20;;;;;;6219159;23;20024;-77
2021/07/13 11:11:47;;;;;;;6.13;3.50;;;22.40;85.90;;;;;;6193699;23;20024;-77
2021/07/13 11:14:15;;;;;;;7.28;4.20;;;22.70;85.40;;;;;;6218225;23;20024;-76
2021/07/13 11:16:44;;;;;;;7.70;4.00;;;23.00;84.60;;;;;;6219668;23;20131;-77
2021/07/13 11:19:15;;;;;;;9.18;4.07;;;23.10;83.90;;;;;;6220848;23;20013;-77
2021/07/13 11:21:44;;;;;;;8.55;3.53;;;23.10;84.40;;;;;;6217228;23;20016;-77
2021/07/13 11:24:14;;;;;;;5.22;3.35;;;23.00;83.80;;;;;;6218510;23;20035;-77
2021/07/13 11:26:45;;;;;;;5.55;3.20;;;23.00;83.60;;;;;;6220027;23;20024;-75
2021/07/13 11:29:19;;;;;;;6.40;3.20;;;23.10;83.30;;;;;;6194057;23;20277;-77
2021/07/13 11:31:49;;;;;;;8.57;3.67;;;23.30;83.10;;;;;;6225103;23;20017;-77
2021/07/13 11:34:19;;;;;;;5.88;3.80;;;23.50;82.30;;;;;;6225783;23;20298;-78
2021/07/13 11:36:47;;;;;;;;;;;23.90;81.60;;;;;;6226787;23;20264;-78
2021/07/13 11:39:17;;;;;;;4.68;2.78;;;24.00;80.10;;;;;;6223567;23;19912;-78
2021/07/13 11:41:46;;;;;;;4.32;2.65;;;24.10;78.50;;;;;;6215552;23;20013;-78
2021/07/13 11:44:13;;;;;;;5.28;2.80;;;25.40;74.80;;;;;;6218446;23;20029;-78
2021/07/13 11:46:42;;;;;;;6.60;3.10;;;26.30;70.40;;;;;;6219447;23;20224;-78
2021/07/13 11:49:12;;;;;;;6.30;2.97;;;26.60;70.70;;;;;;6192163;23;20047;-78
2021/07/13 11:51:41;;;;;;;5.07;2.97;;;26.90;70.20;;;;;;6217270;23;20012;-78
2021/07/13 11:54:10;;;;;;;5.30;2.83;;;26.60;69.50;;;;;;6215742;23;20075;-77
2021/07/13 11:56:39;;;;;;;4.18;2.42;;;26.20;69.50;;;;;;6218138;23;20044;-77
2021/07/13 11:59:14;;;;;;;5.93;3.10;;;26.80;69.20;;;;;;6218168;23;20100;-78
2021/07/13 12:01:43;;;;;;;7.55;2.97;;;26.90;68.90;;;;;;6216000;23;20059;-78
2021/07/13 12:04:12;;;;;;;5.07;2.63;;;26.80;68.90;;;;;;6192096;23;20032;-77
2021/07/13 12:06:42;;;;;;;4.07;2.40;;;26.80;67.90;;;;;;6220117;23;20075;-77
2021/07/13 12:09:11;;;;;;;4.50;3.10;;;25.90;70.00;;;;;;6220739;23;20017;-77
2021/07/13 12:11:40;;;;;;;;;;;25.80;71.20;;;;;;6221555;23;20350;-78
2021/07/13 12:14:11;;;;;;;6.30;3.30;;;25.00;72.90;;;;;;6190181;23;19912;-76
2021/07/13 12:16:39;;;;;;;5.22;3.15;;;25.10;72.60;;;;;;6192221;23;20029;-78
2021/07/13 12:19:09;;;;;;;4.88;3.17;;;24.50;74.50;;;;;;6187576;23;20028;-77
2021/07/13 12:21:41;;;;;;;6.35;3.10;;;24.10;76.20;;;;;;6192821;23;20102;-77
2021/07/13 12:24:13;;;;;;;6.00;3.17;;;23.70;76.00;;;;;;6219094;23;20024;-77
2021/07/13 12:26:40;;;;;;;8.45;3.42;;;23.90;77.10;;;;;;6201217;23;20043;-77
2021/07/13 12:29:14;;;;;;;5.57;3.47;;;24.00;76.40;;;;;;6218256;23;20236;-77
2021/07/13 12:31:53;;;;;;;6.57;3.90;;;23.70;77.00;;;;;;6217749;23;20221;-77
2021/07/13 12:34:22;;;;;;;5.22;3.50;;;24.10;77.10;;;;;;6217333;23;20025;-77
2021/07/13 12:36:51;;;;;;;6.15;3.35;;;23.90;76.70;;;;;;6219976;23;20035;-77
2021/07/13 12:39:27;;;;;;;5.47;3.17;;;23.60;77.30;;;;;;6218893;23;20063;-77
2021/07/13 12:42:00;;;;;;;6.40;3.60;;;23.20;77.70;;;;;;6242829;23;20029;-77
2021/07/13 12:44:36;;;;;;;7.15;3.60;;;23.10;78.10;;;;;;6216991;23;20328;-77
2021/07/13 12:47:24;;;;;;;4.95;3.05;;;23.10;78.50;;;;;;6217997;23;20347;-77
2021/07/13 12:50:15;;;;;;;4.53;3.10;;;23.10;78.60;;;;;;6218180;23;20228;-77
2021/07/13 12:52:45;;;;;;;5.35;3.15;;;22.70;78.90;;;;;;6240134;23;20044;-76
2021/07/13 12:55:15;;;;;;;5.20;3.10;;;22.40;79.90;;;;;;6218826;23;20017;-76
2021/07/13 12:57:45;;;;;;;5.40;3.53;;;22.50;80.60;;;;;;6218767;23;20024;-77
2021/07/13 13:00:16;;;;;;;6.88;3.97;;;22.50;80.60;;;;;;6220458;23;20217;-77
2021/07/13 13:02:46;;;;;;;6.93;3.70;;;22.20;81.70;;;;;;6223402;23;20040;-77
2021/07/13 13:05:26;;;;;;;5.60;3.85;;;22.20;81.20;;;;;;6244106;23;20067;-77